createdAt,value
2023-03-12T00:01:56.893Z,6.33
2023-03-12T00:04:26.429Z,6.20
2023-03-12T00:06:54.627Z,6.00
2023-03-12T00:09:23.394Z,6.23
2023-03-12T00:11:51.604Z,5.13
2023-03-12T00:14:19.876Z,5.10
2023-03-12T00:16:48.220Z,5.63
2023-03-12T00:19:16.466Z,5.50
2023-03-12T00:21:46.050Z,4.90
2023-03-12T00:24:14.396Z,5.07
2023-03-12T00:26:42.625Z,4.70
2023-03-12T00:29:10.823Z,4.70
2023-03-12T00:31:39.204Z,4.30
2023-03-12T00:34:07.541Z,4.37
2023-03-12T00:36:35.874Z,4.80
2023-03-12T00:39:05.543Z,4.60
2023-03-12T00:41:33.735Z,5.10
2023-03-12T00:44:01.929Z,4.33
2023-03-12T00:46:30.320Z,4.50
2023-03-12T00:48:58.583Z,5.73
2023-03-12T00:51:26.775Z,5.90
2023-03-12T00:53:55.937Z,5.47
2023-03-12T00:56:25.578Z,4.80
2023-03-12T00:58:53.791Z,4.40
2023-03-12T01:01:22.068Z,3.90
2023-03-12T01:03:52.059Z,4.63
2023-03-12T01:06:20.370Z,5.23
2023-03-12T01:08:48.761Z,4.87
2023-03-12T01:11:17.311Z,3.70
2023-03-12T01:13:46.935Z,3.60
2023-03-12T01:16:15.188Z,3.27
2023-03-12T01:18:43.635Z,3.27
2023-03-12T01:21:12.259Z,3.87
2023-03-12T01:23:40.849Z,3.80
2023-03-12T01:26:09.077Z,3.57
2023-03-12T01:28:37.274Z,3.67
2023-03-12T01:31:10.762Z,3.70
2023-03-12T01:33:39.075Z,3.53
2023-03-12T01:36:08.160Z,6.40
2023-03-12T01:38:36.517Z,5.13
2023-03-12T01:41:04.833Z,5.40
2023-03-12T01:43:34.514Z,3.90
2023-03-12T01:46:24.032Z,4.27
2023-03-12T01:48:56.301Z,3.77
2023-03-12T01:51:26.807Z,4.10
2023-03-12T01:53:56.760Z,4.57
2023-03-12T01:56:28.532Z,4.50
2023-03-12T01:58:58.001Z,4.40
2023-03-12T02:01:26.758Z,5.03
2023-03-12T02:03:57.684Z,5.37
2023-03-12T02:06:28.799Z,5.93
2023-03-12T02:08:57.265Z,5.87
2023-03-12T02:11:25.483Z,5.80
2023-03-12T02:13:53.721Z,5.57
2023-03-12T02:16:22.040Z,5.90
2023-03-12T02:18:52.200Z,5.80
2023-03-12T02:21:22.866Z,5.80
2023-03-12T02:23:54.614Z,5.17
2023-03-12T02:26:24.941Z,5.70
2023-03-12T02:28:54.355Z,5.47
2023-03-12T02:31:24.435Z,5.70
2023-03-12T02:33:53.302Z,5.40
2023-03-12T02:36:21.904Z,5.13
2023-03-12T02:38:50.924Z,5.27
2023-03-12T02:41:21.813Z,4.90
2023-03-12T02:43:53.766Z,5.03
2023-03-12T02:46:22.244Z,5.60
2023-03-12T02:48:50.550Z,5.93
2023-03-12T02:51:18.809Z,5.30
2023-03-12T02:53:47.216Z,5.10
2023-03-12T02:56:15.408Z,5.10
2023-03-12T02:58:44.588Z,5.13
2023-03-12T03:01:14.160Z,5.33
2023-03-12T03:03:42.491Z,4.90
2023-03-12T03:06:10.857Z,5.43
2023-03-12T03:08:39.049Z,4.93
2023-03-12T03:11:07.469Z,5.10
2023-03-12T03:13:35.945Z,5.37
2023-03-12T03:16:04.401Z,4.63
2023-03-12T03:18:34.041Z,5.03
2023-03-12T03:21:03.467Z,4.60
2023-03-12T03:23:31.675Z,4.47
2023-03-12T03:26:00.343Z,4.90
2023-03-12T03:28:29.371Z,4.80
2023-03-12T03:31:01.352Z,4.80
2023-03-12T03:33:29.744Z,4.57
2023-03-12T03:35:59.507Z,4.97
2023-03-12T03:38:27.967Z,5.03
2023-03-12T03:40:56.510Z,5.10
2023-03-12T03:43:24.814Z,5.00
2023-03-12T03:45:58.659Z,4.90
2023-03-12T03:48:26.917Z,4.97
2023-03-12T03:50:55.182Z,5.40
2023-03-12T03:53:24.732Z,4.80
2023-03-12T03:55:52.986Z,4.47
2023-03-12T03:58:21.189Z,4.73
2023-03-12T04:00:49.427Z,4.53
2023-03-12T04:03:17.661Z,4.97
2023-03-12T04:05:46.100Z,4.50
2023-03-12T04:08:14.512Z,4.27
2023-03-12T04:10:44.047Z,4.17
2023-03-12T04:13:12.284Z,4.50
2023-03-12T04:15:40.711Z,4.47
2023-03-12T04:18:09.022Z,4.37
2023-03-12T04:20:37.182Z,4.60
2023-03-12T04:23:05.425Z,4.37
2023-03-12T04:25:33.674Z,4.23
2023-03-12T04:28:03.374Z,4.23
2023-03-12T04:30:31.590Z,4.27
2023-03-12T04:32:59.801Z,4.00
2023-03-12T04:35:28.110Z,4.60
2023-03-12T04:37:56.298Z,4.90
2023-03-12T04:40:24.517Z,4.63
2023-03-12T04:42:52.715Z,4.63
2023-03-12T04:45:22.337Z,4.00
2023-03-12T04:47:50.531Z,4.27
2023-03-12T04:50:19.089Z,4.50
2023-03-12T04:52:47.290Z,4.07
2023-03-12T04:55:15.489Z,4.67
2023-03-12T04:57:43.739Z,4.60
2023-03-12T05:00:13.285Z,4.43
2023-03-12T05:02:43.287Z,4.93
2023-03-12T05:05:12.998Z,4.73
2023-03-12T05:07:41.247Z,4.80
2023-03-12T05:10:10.165Z,4.37
2023-03-12T05:12:38.383Z,4.63
2023-03-12T05:15:07.030Z,4.50
2023-03-12T05:17:35.247Z,4.23
2023-03-12T05:20:05.127Z,4.47
2023-03-12T05:22:33.365Z,4.77
2023-03-12T05:25:01.553Z,3.93
2023-03-12T05:27:31.820Z,4.40
2023-03-12T05:30:00.443Z,4.47
2023-03-12T05:32:28.659Z,4.07
2023-03-12T05:34:56.868Z,4.00
2023-03-12T05:37:27.587Z,4.40
2023-03-12T05:39:56.175Z,4.37
2023-03-12T05:42:25.936Z,4.10
2023-03-12T05:44:54.145Z,4.60
2023-03-12T05:47:22.328Z,4.23
2023-03-12T05:49:50.649Z,3.80
2023-03-12T05:52:18.894Z,4.30
2023-03-12T05:54:48.522Z,4.10
2023-03-12T05:57:16.752Z,3.67
2023-03-12T05:59:45.001Z,3.90
2023-03-12T06:02:13.274Z,4.03
2023-03-12T06:04:41.530Z,4.20
2023-03-12T06:07:09.695Z,3.70
2023-03-12T06:09:38.306Z,3.70
2023-03-12T06:12:08.189Z,3.50
2023-03-12T06:14:36.428Z,3.63
2023-03-12T06:17:04.674Z,3.77
2023-03-12T06:19:32.863Z,3.30
2023-03-12T06:22:01.095Z,3.10
2023-03-12T06:24:29.286Z,3.40
2023-03-12T06:26:57.558Z,2.60
2023-03-12T06:29:27.235Z,2.93
2023-03-12T06:31:56.023Z,3.30
2023-03-12T06:34:24.336Z,2.77
2023-03-12T06:36:52.550Z,3.37
2023-03-12T06:39:20.721Z,2.90
2023-03-12T06:41:48.948Z,3.00
2023-03-12T06:44:17.516Z,3.00
2023-03-12T06:46:47.231Z,2.83
2023-03-12T06:49:15.820Z,3.03
2023-03-12T06:51:44.047Z,2.80
2023-03-12T06:54:12.272Z,2.90
2023-03-12T06:56:40.627Z,3.07
2023-03-12T06:59:09.016Z,3.20
2023-03-12T07:01:37.183Z,2.83
2023-03-12T07:04:06.885Z,2.60
2023-03-12T07:06:35.170Z,2.43
2023-03-12T07:09:04.857Z,2.57
2023-03-12T07:11:33.090Z,3.07
2023-03-12T07:14:01.633Z,2.60
2023-03-12T07:16:30.859Z,2.70
2023-03-12T07:18:59.179Z,2.60
2023-03-12T07:21:29.040Z,2.90
2023-03-12T07:23:57.251Z,2.67
2023-03-12T07:26:25.706Z,3.30
2023-03-12T07:28:53.949Z,2.93
2023-03-12T07:31:22.177Z,3.30
2023-03-12T07:33:50.580Z,3.10
2023-03-12T07:36:18.919Z,3.23
2023-03-12T07:38:48.710Z,3.27
2023-03-12T07:41:17.026Z,3.70
2023-03-12T07:43:45.789Z,3.77
2023-03-12T07:46:14.193Z,2.80
2023-03-12T07:48:44.306Z,3.33
2023-03-12T07:51:13.021Z,3.90
2023-03-12T07:53:41.285Z,2.90
2023-03-12T07:56:11.105Z,2.80
2023-03-12T07:58:39.671Z,2.50
2023-03-12T08:01:08.285Z,2.40
2023-03-12T08:03:36.982Z,2.40
2023-03-12T08:06:06.292Z,2.57
2023-03-12T08:08:36.148Z,2.43
2023-03-12T08:11:05.615Z,2.63
2023-03-12T08:13:35.362Z,2.50
2023-03-12T08:16:03.644Z,2.43
2023-03-12T08:18:31.896Z,2.60
2023-03-12T08:21:00.163Z,3.17
2023-03-12T08:23:28.615Z,3.10
2023-03-12T08:25:56.849Z,3.50
2023-03-12T08:28:25.626Z,3.70
2023-03-12T08:30:55.872Z,3.80
2023-03-12T08:33:24.096Z,3.90
2023-03-12T08:35:52.370Z,2.80
2023-03-12T08:38:21.159Z,3.90
2023-03-12T08:40:55.965Z,3.10
2023-03-12T08:43:24.194Z,3.67
2023-03-12T08:45:56.389Z,4.37
2023-03-12T08:48:24.808Z,3.93
2023-03-12T08:50:53.000Z,3.70
2023-03-12T08:53:21.221Z,3.23
2023-03-12T08:55:49.402Z,3.50
2023-03-12T08:58:17.592Z,3.10
2023-03-12T09:00:45.925Z,3.40
2023-03-12T09:03:15.536Z,3.67
2023-03-12T09:05:47.182Z,3.80
2023-03-12T09:08:15.863Z,3.67
2023-03-12T09:10:50.113Z,3.60
2023-03-12T09:13:18.439Z,3.90
2023-03-12T09:15:46.666Z,3.23
2023-03-12T09:18:16.564Z,3.57
2023-03-12T09:20:44.979Z,3.77
2023-03-12T09:23:13.182Z,3.30
2023-03-12T09:25:41.512Z,3.57
2023-03-12T09:28:10.262Z,3.70
2023-03-12T09:30:38.570Z,3.57
2023-03-12T09:33:06.849Z,3.70
2023-03-12T09:35:36.457Z,3.83
2023-03-12T09:38:05.160Z,4.57
2023-03-12T09:40:36.357Z,5.27
2023-03-12T09:43:06.199Z,4.60
2023-03-12T09:45:37.462Z,4.20
2023-03-12T09:48:06.803Z,4.57
2023-03-12T09:50:40.283Z,4.00
2023-03-12T09:53:13.316Z,4.90
2023-03-12T09:55:42.764Z,4.23
2023-03-12T09:58:14.508Z,4.30
2023-03-12T10:00:42.787Z,4.50
2023-03-12T10:03:20.943Z,4.90
2023-03-12T10:05:56.342Z,4.93
2023-03-12T10:08:28.720Z,5.30
2023-03-12T10:11:00.743Z,5.20
2023-03-12T10:13:38.477Z,5.30
2023-03-12T10:16:13.538Z,4.80
2023-03-12T10:18:55.145Z,5.77
2023-03-12T10:21:27.952Z,6.10
2023-03-12T10:24:04.321Z,6.33
2023-03-12T10:26:34.524Z,5.77
2023-03-12T10:29:05.247Z,7.87
2023-03-12T10:31:36.485Z,7.83
2023-03-12T10:34:08.775Z,7.03
2023-03-12T10:36:39.972Z,7.23
2023-03-12T10:39:12.772Z,7.73
2023-03-12T10:41:40.977Z,7.47
2023-03-12T10:44:10.586Z,7.70
2023-03-12T10:46:53.930Z,8.73
2023-03-12T10:49:26.447Z,9.23
2023-03-12T10:52:00.361Z,10.17
2023-03-12T10:54:32.788Z,9.50
2023-03-12T10:57:01.016Z,8.43
2023-03-12T10:59:30.734Z,8.10
2023-03-12T11:01:59.577Z,7.90
2023-03-12T11:04:30.184Z,8.97
2023-03-12T11:07:17.657Z,8.77
2023-03-12T11:09:46.000Z,9.30
2023-03-12T11:12:29.534Z,10.70
2023-03-12T11:14:57.861Z,11.10
2023-03-12T11:17:26.821Z,10.10
2023-03-12T11:19:55.045Z,11.00
2023-03-12T11:22:32.441Z,10.43
2023-03-12T11:25:01.485Z,11.37
2023-03-12T11:27:36.053Z,11.60
2023-03-12T11:30:05.585Z,11.27
2023-03-12T11:32:36.105Z,12.70
2023-03-12T11:35:05.347Z,12.37
2023-03-12T11:37:41.430Z,13.50
2023-03-12T11:40:15.397Z,13.27
2023-03-12T11:42:52.006Z,13.10
2023-03-12T11:45:24.841Z,13.77
2023-03-12T11:47:57.136Z,12.93
2023-03-12T11:50:30.387Z,14.00
2023-03-12T11:53:16.073Z,13.70
2023-03-12T11:55:49.222Z,12.83
2023-03-12T11:58:35.855Z,13.20
2023-03-12T12:01:14.357Z,12.33
2023-03-12T12:03:56.477Z,13.37
2023-03-12T12:06:28.017Z,12.67
2023-03-12T12:09:06.759Z,12.13
2023-03-12T12:11:38.499Z,13.73
2023-03-12T12:14:15.672Z,11.00
2023-03-12T12:16:50.541Z,12.30
2023-03-12T12:19:24.685Z,11.40
2023-03-12T12:21:57.105Z,10.97
2023-03-12T12:24:39.387Z,12.17
2023-03-12T12:27:15.459Z,11.33
2023-03-12T12:29:51.750Z,11.07
2023-03-12T12:32:23.908Z,11.83
2023-03-12T12:34:59.676Z,11.60
2023-03-12T12:37:33.229Z,10.77
2023-03-12T12:40:08.734Z,11.57
2023-03-12T12:42:46.079Z,11.40
2023-03-12T12:45:15.898Z,11.67
2023-03-12T12:47:47.191Z,10.90
2023-03-12T12:50:18.150Z,11.83
2023-03-12T12:52:47.113Z,11.07
2023-03-12T12:55:19.436Z,10.30
2023-03-12T12:57:49.282Z,11.17
2023-03-12T13:00:27.570Z,11.60
2023-03-12T13:02:57.425Z,11.47
2023-03-12T13:05:28.795Z,11.47
2023-03-12T13:07:57.156Z,12.23
2023-03-12T13:10:48.686Z,12.00
2023-03-12T13:13:28.537Z,12.23
2023-03-12T13:16:11.758Z,11.50
2023-03-12T13:18:40.758Z,12.07
2023-03-12T13:21:16.775Z,12.30
2023-03-12T13:23:49.662Z,12.30
2023-03-12T13:26:22.781Z,12.47
2023-03-12T13:29:11.911Z,12.30
2023-03-12T13:31:42.340Z,11.83
2023-03-12T13:34:29.321Z,13.40
2023-03-12T13:37:00.380Z,13.47
2023-03-12T13:39:32.004Z,12.93
2023-03-12T13:42:02.340Z,13.10
2023-03-12T13:44:33.059Z,14.27
2023-03-12T13:47:02.761Z,13.53
2023-03-12T13:49:37.533Z,14.57
2023-03-12T13:52:19.969Z,13.17
2023-03-12T13:54:49.481Z,13.30
2023-03-12T13:57:27.777Z,12.97
2023-03-12T13:59:58.616Z,12.97
2023-03-12T14:02:28.839Z,12.63
2023-03-12T14:05:04.062Z,13.60
2023-03-12T14:07:42.863Z,14.53
2023-03-12T14:10:18.965Z,14.70
2023-03-12T14:12:54.146Z,14.00
2023-03-12T14:15:27.289Z,14.00
2023-03-12T14:17:57.842Z,14.73
2023-03-12T14:20:26.619Z,14.83
2023-03-12T14:22:57.107Z,15.60
2023-03-12T14:25:30.073Z,15.00
2023-03-12T14:27:59.953Z,15.23
2023-03-12T14:30:33.857Z,15.47
2023-03-12T14:33:04.933Z,14.60
2023-03-12T14:35:35.798Z,14.30
2023-03-12T14:38:06.531Z,13.70
2023-03-12T14:40:38.629Z,13.47
2023-03-12T14:43:21.812Z,12.03
2023-03-12T14:45:53.578Z,12.83
2023-03-12T14:48:25.817Z,11.53
2023-03-12T14:50:54.492Z,11.07
2023-03-12T14:53:24.535Z,10.23
2023-03-12T14:56:02.791Z,10.17
2023-03-12T14:58:31.222Z,10.30
2023-03-12T15:01:02.084Z,9.87
2023-03-12T15:03:30.853Z,9.43
2023-03-12T15:05:59.613Z,10.03
2023-03-12T15:08:28.436Z,9.33
2023-03-12T15:10:57.633Z,8.73
2023-03-12T15:13:26.889Z,8.80
2023-03-12T15:15:56.093Z,9.07
2023-03-12T15:18:27.310Z,8.37
2023-03-12T15:20:57.251Z,8.60
2023-03-12T15:23:26.337Z,8.03
2023-03-12T15:26:09.599Z,8.13
2023-03-12T15:28:38.293Z,8.60
2023-03-12T15:31:08.325Z,7.77
2023-03-12T15:33:38.206Z,7.20
2023-03-12T15:36:10.382Z,7.53
2023-03-12T15:38:39.731Z,7.47
2023-03-12T15:41:09.579Z,6.43
2023-03-12T15:43:38.043Z,6.10
2023-03-12T15:46:10.503Z,6.20
2023-03-12T15:48:41.867Z,6.27
2023-03-12T15:51:15.776Z,6.43
2023-03-12T15:53:44.037Z,6.37
2023-03-12T15:56:23.352Z,5.80
2023-03-12T15:59:00.528Z,6.67
2023-03-12T16:01:29.226Z,6.00
2023-03-12T16:03:59.304Z,5.40
2023-03-12T16:06:29.974Z,6.23
2023-03-12T16:08:59.414Z,6.60
2023-03-12T16:11:28.511Z,5.60
2023-03-12T16:14:00.147Z,6.17
2023-03-12T16:16:28.456Z,6.27
2023-03-12T16:18:57.157Z,7.13
2023-03-12T16:21:27.169Z,7.27
2023-03-12T16:23:55.535Z,6.40
2023-03-12T16:26:23.809Z,6.70
2023-03-12T16:28:52.052Z,6.83
2023-03-12T16:31:20.402Z,6.70
2023-03-12T16:33:48.692Z,6.10
2023-03-12T16:36:19.187Z,6.87
2023-03-12T16:38:48.944Z,7.30
2023-03-12T16:41:19.133Z,6.70
2023-03-12T16:43:48.693Z,6.37
2023-03-12T16:46:18.652Z,6.90
2023-03-12T16:48:47.075Z,7.20
2023-03-12T16:51:16.072Z,6.70
2023-03-12T16:53:46.332Z,6.33
2023-03-12T16:56:18.213Z,5.87
2023-03-12T16:58:47.018Z,5.83
2023-03-12T17:01:16.063Z,6.33
2023-03-12T17:03:46.448Z,7.30
2023-03-12T17:06:16.911Z,6.40
2023-03-12T17:08:45.278Z,7.10
2023-03-12T17:11:15.794Z,6.10
2023-03-12T17:13:46.679Z,6.27
2023-03-12T17:16:15.292Z,6.47
2023-03-12T17:18:43.622Z,5.83
2023-03-12T17:21:12.860Z,6.83
2023-03-12T17:23:41.139Z,6.40
2023-03-12T17:26:09.747Z,6.03
2023-03-12T17:28:38.153Z,7.57
2023-03-12T17:31:08.272Z,6.47
2023-03-12T17:33:38.250Z,7.40
2023-03-12T17:38:39.786Z,6.70
2023-03-12T17:41:23.388Z,6.00
2023-03-12T17:43:53.635Z,6.73
2023-03-12T17:46:23.835Z,6.23
2023-03-12T17:48:52.224Z,7.50
2023-03-12T17:51:21.068Z,7.00
2023-03-12T17:53:49.558Z,7.47
2023-03-12T17:56:19.331Z,6.93
2023-03-12T17:58:47.766Z,6.90
2023-03-12T18:01:16.497Z,7.60
2023-03-12T18:03:46.235Z,6.53
2023-03-12T18:06:14.547Z,7.07
2023-03-12T18:08:42.799Z,7.00
2023-03-12T18:11:11.094Z,7.70
2023-03-12T18:13:40.873Z,7.40
2023-03-12T18:16:09.356Z,6.90
2023-03-12T18:18:37.704Z,6.37
2023-03-12T18:21:07.473Z,6.90
2023-03-12T18:23:35.672Z,7.57
2023-03-12T18:26:04.089Z,7.17
2023-03-12T18:28:33.014Z,7.37
2023-03-12T18:31:01.620Z,7.13
2023-03-12T18:33:30.695Z,7.23
2023-03-12T18:35:59.068Z,8.10
2023-03-12T18:38:28.683Z,8.57
2023-03-12T18:41:03.932Z,10.53
2023-03-12T18:43:32.735Z,11.30
2023-03-12T18:46:01.121Z,8.33
2023-03-12T18:48:29.437Z,7.43
2023-03-12T18:50:57.667Z,7.53
2023-03-12T18:53:25.912Z,6.37
2023-03-12T18:55:56.452Z,6.90
2023-03-12T18:58:25.192Z,6.17
2023-03-12T19:00:53.600Z,6.13
2023-03-12T19:03:22.238Z,6.17
2023-03-12T19:05:50.882Z,7.17
2023-03-12T19:08:20.677Z,6.30
2023-03-12T19:10:48.883Z,7.20
2023-03-12T19:13:18.490Z,7.70
2023-03-12T19:15:47.088Z,7.63
2023-03-12T19:18:15.354Z,8.00
2023-03-12T19:20:43.631Z,7.60
2023-03-12T19:23:11.888Z,7.00
2023-03-12T19:25:40.096Z,8.40
2023-03-12T19:28:08.323Z,8.53
2023-03-12T19:30:37.912Z,9.00
2023-03-12T19:33:06.342Z,7.60
2023-03-12T19:35:34.945Z,7.70
2023-03-12T19:38:03.244Z,8.10
2023-03-12T19:40:31.456Z,7.27
2023-03-12T19:42:59.845Z,7.47
2023-03-12T19:45:28.391Z,8.07
2023-03-12T19:47:58.066Z,8.10
2023-03-12T19:50:26.381Z,7.17
2023-03-12T19:52:54.655Z,8.60
2023-03-12T19:55:22.953Z,6.70
2023-03-12T19:57:51.197Z,7.83
2023-03-12T20:00:19.756Z,6.40
2023-03-12T20:02:48.449Z,6.53
2023-03-12T20:05:18.193Z,6.20
2023-03-12T20:07:46.788Z,6.47
2023-03-12T20:10:15.004Z,6.80
2023-03-12T20:12:43.538Z,6.53
2023-03-12T20:15:12.013Z,6.90
2023-03-12T20:17:40.421Z,6.60
2023-03-12T20:20:09.471Z,6.07
2023-03-12T20:22:39.050Z,6.17
2023-03-12T20:25:08.171Z,5.80
2023-03-12T20:27:36.463Z,7.03
2023-03-12T20:30:04.740Z,5.97
2023-03-12T20:32:33.030Z,7.67
2023-03-12T20:35:01.265Z,6.70
2023-03-12T20:37:29.592Z,6.50
2023-03-12T20:40:28.656Z,7.43
2023-03-12T20:43:08.168Z,6.47
2023-03-12T20:45:36.991Z,6.20
2023-03-12T20:48:05.347Z,6.13
2023-03-12T20:50:33.999Z,6.80
2023-03-12T20:53:02.208Z,6.83
2023-03-12T20:55:31.894Z,6.07
2023-03-12T20:58:00.448Z,5.70
2023-03-12T21:00:28.820Z,6.40
2023-03-12T21:02:57.083Z,5.97
2023-03-12T21:05:25.597Z,6.50
2023-03-12T21:07:58.049Z,6.93
2023-03-12T21:10:26.546Z,5.87
2023-03-12T21:12:56.186Z,6.00
2023-03-12T21:15:24.472Z,5.90
2023-03-12T21:17:52.742Z,6.43
2023-03-12T21:20:21.115Z,6.67
2023-03-12T21:22:49.318Z,5.43
2023-03-12T21:25:17.613Z,6.10
2023-03-12T21:27:51.151Z,6.00
2023-03-12T21:30:21.314Z,5.43
2023-03-12T21:32:49.652Z,5.63
2023-03-12T21:35:19.845Z,5.03
2023-03-12T21:37:48.121Z,6.07
2023-03-12T21:40:16.615Z,5.77
2023-03-12T21:42:44.829Z,6.10
2023-03-12T21:45:13.216Z,6.50
2023-03-12T21:47:42.825Z,5.60
2023-03-12T21:50:11.862Z,6.00
2023-03-12T21:52:43.303Z,5.63
2023-03-12T21:55:12.053Z,5.57
2023-03-12T21:57:40.493Z,5.63
2023-03-12T22:00:12.365Z,6.37
2023-03-12T22:02:40.702Z,5.87
2023-03-12T22:05:10.604Z,6.47
2023-03-12T22:07:39.566Z,5.77
2023-03-12T22:10:11.671Z,5.53
2023-03-12T22:12:40.526Z,5.40
2023-03-12T22:15:09.642Z,5.73
2023-03-12T22:17:37.854Z,5.20
2023-03-12T22:20:07.907Z,5.60
2023-03-12T22:22:37.478Z,6.17
2023-03-12T22:25:05.912Z,5.30
2023-03-12T22:27:34.155Z,5.93
2023-03-12T22:30:02.403Z,5.83
2023-03-12T22:32:30.695Z,6.17
2023-03-12T22:34:58.890Z,5.47
2023-03-12T22:37:27.066Z,6.07
2023-03-12T22:40:01.269Z,5.87
2023-03-12T22:42:29.559Z,5.53
2023-03-12T22:44:57.785Z,5.97
2023-03-12T22:47:26.038Z,6.03
2023-03-12T22:49:57.527Z,5.33
2023-03-12T22:52:25.729Z,6.30
2023-03-12T22:54:54.022Z,5.87
2023-03-12T22:57:23.713Z,5.90
2023-03-12T22:59:51.928Z,5.60
2023-03-12T23:02:20.164Z,6.27
2023-03-12T23:04:48.396Z,5.40
2023-03-12T23:07:17.256Z,5.80
2023-03-12T23:09:46.222Z,6.10
2023-03-12T23:12:14.423Z,5.87
2023-03-12T23:14:44.057Z,5.77
2023-03-12T23:17:12.283Z,5.57
2023-03-12T23:19:42.625Z,5.33
2023-03-12T23:22:10.905Z,4.90
2023-03-12T23:24:39.143Z,4.80
2023-03-12T23:27:07.808Z,4.77
2023-03-12T23:29:36.097Z,6.30
2023-03-12T23:32:06.230Z,5.67
2023-03-12T23:34:34.908Z,5.10
2023-03-12T23:37:03.289Z,5.20
2023-03-12T23:39:32.793Z,5.17
2023-03-12T23:42:03.647Z,5.90
2023-03-12T23:44:31.853Z,5.53
2023-03-12T23:47:00.049Z,4.77
2023-03-12T23:49:29.865Z,5.37
2023-03-12T23:51:58.068Z,5.13
2023-03-12T23:54:26.300Z,5.33
2023-03-12T23:56:56.130Z,5.30
2023-03-12T23:59:24.346Z,4.90
